createdAt,value
2024-04-14T00:00:57.865Z,15.41
2024-04-14T00:03:44.197Z,15.36
2024-04-14T00:06:31.406Z,15.35
2024-04-14T00:09:17.498Z,15.31
2024-04-14T00:12:03.981Z,15.30
2024-04-14T00:14:50.891Z,15.30
2024-04-14T00:17:38.191Z,15.21
2024-04-14T00:20:26.109Z,15.21
2024-04-14T00:23:12.878Z,15.17
2024-04-14T00:25:58.992Z,15.19
2024-04-14T00:28:46.366Z,15.17
2024-04-14T00:31:34.067Z,15.09
2024-04-14T00:34:22.621Z,15.05
2024-04-14T00:37:08.842Z,14.95
2024-04-14T00:39:55.002Z,14.92
2024-04-14T00:42:41.835Z,14.89
2024-04-14T00:45:29.091Z,14.85
2024-04-14T00:48:15.634Z,14.80
2024-04-14T00:51:04.802Z,14.71
2024-04-14T00:53:51.629Z,14.68
2024-04-14T00:56:37.959Z,14.67
2024-04-14T00:59:24.038Z,14.66
2024-04-14T01:02:10.091Z,14.61
2024-04-14T01:04:56.749Z,14.64
2024-04-14T01:07:43.357Z,14.62
2024-04-14T01:10:31.085Z,14.60
2024-04-14T01:13:17.549Z,14.52
2024-04-14T01:16:04.542Z,14.59
2024-04-14T01:18:51.352Z,14.58
2024-04-14T01:21:38.121Z,14.57
2024-04-14T01:24:24.802Z,14.55
2024-04-14T01:27:14.069Z,14.53
2024-04-14T01:30:08.864Z,14.49
2024-04-14T01:32:55.319Z,14.48
2024-04-14T01:35:41.822Z,14.43
2024-04-14T01:38:28.310Z,14.41
2024-04-14T01:41:14.487Z,14.38
2024-04-14T01:44:01.086Z,14.35
2024-04-14T01:46:47.738Z,14.32
2024-04-14T01:49:33.852Z,14.24
2024-04-14T01:52:20.547Z,14.28
2024-04-14T01:55:07.040Z,14.25
2024-04-14T01:57:53.455Z,14.23
2024-04-14T02:00:40.102Z,14.19
2024-04-14T02:03:26.932Z,14.19
2024-04-14T02:06:13.330Z,14.13
2024-04-14T02:08:59.599Z,14.13
2024-04-14T02:11:46.046Z,14.09
2024-04-14T02:14:32.474Z,14.06
2024-04-14T02:17:19.250Z,14.05
2024-04-14T02:20:06.035Z,14.02
2024-04-14T02:22:52.971Z,13.96
2024-04-14T02:25:40.287Z,13.95
2024-04-14T02:28:27.197Z,13.96
2024-04-14T02:31:13.595Z,13.91
2024-04-14T02:33:59.923Z,13.92
2024-04-14T02:36:46.549Z,13.94
2024-04-14T02:39:34.061Z,13.94
2024-04-14T02:42:20.190Z,13.94
2024-04-14T02:45:06.637Z,13.93
2024-04-14T02:47:52.911Z,13.88
2024-04-14T02:50:39.597Z,13.89
2024-04-14T02:53:27.054Z,13.91
2024-04-14T02:56:13.228Z,13.90
2024-04-14T02:58:59.245Z,13.84
2024-04-14T03:01:46.871Z,13.90
2024-04-14T03:04:33.155Z,13.93
2024-04-14T03:07:19.529Z,13.91
2024-04-14T03:10:06.253Z,13.93
2024-04-14T03:12:52.794Z,13.91
2024-04-14T03:15:38.989Z,13.90
2024-04-14T03:18:25.591Z,13.88
2024-04-14T03:21:11.499Z,13.84
2024-04-14T03:23:57.723Z,13.89
2024-04-14T03:26:46.265Z,13.82
2024-04-14T03:29:32.267Z,13.81
2024-04-14T03:32:18.715Z,13.79
2024-04-14T03:35:06.226Z,13.72
2024-04-14T03:37:52.625Z,13.67
2024-04-14T03:40:38.615Z,13.68
2024-04-14T03:43:25.909Z,13.62
2024-04-14T03:46:12.012Z,13.62
2024-04-14T03:48:58.778Z,13.54
2024-04-14T03:51:45.348Z,13.60
2024-04-14T03:54:31.876Z,13.51
2024-04-14T03:57:18.098Z,13.50
2024-04-14T04:00:05.573Z,13.50
2024-04-14T04:03:00.967Z,13.48
2024-04-14T04:05:55.530Z,13.39
2024-04-14T04:08:41.561Z,13.40
2024-04-14T04:11:30.287Z,13.38
2024-04-14T04:14:16.611Z,13.30
2024-04-14T04:17:03.394Z,13.38
2024-04-14T04:19:49.679Z,13.36
2024-04-14T04:22:36.103Z,13.36
2024-04-14T04:25:22.185Z,13.37
2024-04-14T04:28:08.038Z,13.32
2024-04-14T04:30:55.136Z,13.39
2024-04-14T04:33:41.550Z,13.38
2024-04-14T04:36:27.772Z,13.38
2024-04-14T04:39:14.302Z,13.37
2024-04-14T04:42:00.550Z,13.39
2024-04-14T04:44:48.205Z,13.44
2024-04-14T04:47:34.746Z,13.41
2024-04-14T04:50:21.158Z,13.43
2024-04-14T04:53:07.373Z,13.45
2024-04-14T04:55:54.613Z,13.56
2024-04-14T04:58:40.896Z,13.57
2024-04-14T05:01:27.500Z,13.61
2024-04-14T05:04:13.942Z,13.66
2024-04-14T05:07:00.767Z,13.70
2024-04-14T05:09:47.002Z,13.74
2024-04-14T05:12:33.745Z,13.79
2024-04-14T05:15:19.767Z,13.78
2024-04-14T05:18:06.040Z,13.88
2024-04-14T05:20:52.650Z,13.95
2024-04-14T05:23:38.700Z,13.99
2024-04-14T05:26:24.624Z,14.03
2024-04-14T05:29:10.817Z,14.11
2024-04-14T05:31:56.723Z,14.19
2024-04-14T05:34:43.969Z,14.27
2024-04-14T05:37:30.291Z,14.28
2024-04-14T05:40:16.460Z,14.35
2024-04-14T05:43:02.600Z,14.44
2024-04-14T05:45:49.124Z,14.50
2024-04-14T05:48:35.357Z,14.56
2024-04-14T05:51:22.058Z,14.67
2024-04-14T05:54:08.117Z,14.72
2024-04-14T05:56:54.083Z,14.74
2024-04-14T05:59:40.273Z,14.84
2024-04-14T06:02:26.330Z,14.89
2024-04-14T06:05:12.921Z,14.97
2024-04-14T06:07:58.919Z,15.05
2024-04-14T06:10:44.829Z,15.11
2024-04-14T06:13:31.549Z,15.20
2024-04-14T06:16:17.908Z,15.24
2024-04-14T06:19:04.230Z,15.30
2024-04-14T06:21:50.843Z,15.34
2024-04-14T06:24:37.450Z,15.42
2024-04-14T06:27:23.674Z,15.46
2024-04-14T06:30:11.043Z,15.57
2024-04-14T06:32:57.097Z,15.66
2024-04-14T06:35:43.468Z,15.73
2024-04-14T06:38:31.409Z,15.78
2024-04-14T06:41:18.025Z,15.84
2024-04-14T06:44:04.164Z,15.84
2024-04-14T06:46:50.210Z,15.94
2024-04-14T06:49:36.873Z,16.04
2024-04-14T06:52:22.959Z,16.06
2024-04-14T06:55:12.918Z,16.16
2024-04-14T06:57:59.294Z,16.28
2024-04-14T07:00:46.148Z,16.36
2024-04-14T07:03:32.345Z,16.46
2024-04-14T07:06:19.075Z,16.55
2024-04-14T07:09:05.148Z,16.58
2024-04-14T07:11:51.339Z,16.72
2024-04-14T07:14:37.869Z,16.80
2024-04-14T07:17:24.078Z,16.85
2024-04-14T07:20:10.563Z,16.97
2024-04-14T07:22:57.452Z,17.04
2024-04-14T07:25:43.709Z,17.10
2024-04-14T07:28:29.922Z,17.20
2024-04-14T07:31:16.637Z,17.29
2024-04-14T07:34:04.861Z,17.33
2024-04-14T07:36:51.211Z,17.41
2024-04-14T07:39:37.907Z,17.50
2024-04-14T07:42:24.434Z,17.57
2024-04-14T07:45:12.134Z,17.62
2024-04-14T07:47:58.378Z,17.69
2024-04-14T07:50:45.888Z,17.71
2024-04-14T07:53:32.648Z,17.81
2024-04-14T07:56:19.052Z,17.84
2024-04-14T07:59:06.157Z,17.93
2024-04-14T08:01:52.450Z,17.98
2024-04-14T08:04:39.238Z,18.03
2024-04-14T08:07:25.750Z,18.09
2024-04-14T08:10:11.724Z,18.14
2024-04-14T08:12:58.483Z,18.21
2024-04-14T08:15:44.882Z,18.22
2024-04-14T08:18:30.850Z,18.32
2024-04-14T08:21:17.092Z,18.31
2024-04-14T08:24:03.954Z,18.41
2024-04-14T08:26:49.997Z,18.49
2024-04-14T08:29:36.075Z,18.57
2024-04-14T08:32:22.017Z,18.60
2024-04-14T08:35:08.152Z,18.70
2024-04-14T08:37:55.764Z,18.77
2024-04-14T08:40:42.031Z,18.86
2024-04-14T08:43:28.523Z,18.95
2024-04-14T08:46:17.613Z,19.03
2024-04-14T08:49:04.284Z,19.08
2024-04-14T08:51:51.148Z,19.14
2024-04-14T08:54:37.973Z,19.12
2024-04-14T08:57:28.258Z,19.25
2024-04-14T09:00:16.579Z,19.33
2024-04-14T09:03:03.501Z,19.39
2024-04-14T09:05:49.919Z,19.42
2024-04-14T09:08:35.826Z,19.48
2024-04-14T09:11:22.341Z,19.53
2024-04-14T09:14:08.587Z,19.60
2024-04-14T09:16:54.750Z,19.67
2024-04-14T09:19:44.359Z,19.69
2024-04-14T09:22:30.523Z,19.75
2024-04-14T09:25:19.729Z,19.78
2024-04-14T09:28:09.074Z,19.85
2024-04-14T09:30:55.238Z,19.91
2024-04-14T09:33:42.036Z,20.03
2024-04-14T09:36:28.823Z,20.11
2024-04-14T09:39:15.545Z,20.16
2024-04-14T09:42:02.283Z,20.20
2024-04-14T09:44:49.945Z,20.23
2024-04-14T09:47:38.356Z,20.25
2024-04-14T09:50:25.289Z,20.29
2024-04-14T09:53:12.208Z,20.34
2024-04-14T09:55:59.210Z,20.40
2024-04-14T09:58:45.560Z,20.44
2024-04-14T10:01:35.638Z,20.50
2024-04-14T10:04:22.201Z,20.55
2024-04-14T10:07:08.981Z,20.60
2024-04-14T10:09:57.363Z,20.65
2024-04-14T10:12:43.845Z,20.70
2024-04-14T10:15:30.587Z,20.77
2024-04-14T10:18:17.334Z,20.76
2024-04-14T10:21:04.782Z,20.84
2024-04-14T10:23:54.469Z,20.89
2024-04-14T10:26:41.066Z,20.93
2024-04-14T10:29:27.748Z,20.97
2024-04-14T10:32:14.599Z,21.02
2024-04-14T10:35:00.921Z,21.07
2024-04-14T10:37:55.179Z,21.12
2024-04-14T10:40:41.647Z,21.16
2024-04-14T10:43:28.192Z,21.19
2024-04-14T10:46:14.820Z,21.25
2024-04-14T10:49:01.604Z,21.29
2024-04-14T10:51:49.400Z,21.34
2024-04-14T10:54:39.992Z,21.36
2024-04-14T10:57:26.363Z,21.42
2024-04-14T11:00:13.090Z,21.45
2024-04-14T11:03:00.103Z,21.43
2024-04-14T11:05:46.573Z,21.50
2024-04-14T11:08:34.874Z,21.51
2024-04-14T11:11:21.176Z,21.50
2024-04-14T11:14:07.206Z,21.53
2024-04-14T11:16:53.379Z,21.53
2024-04-14T11:19:40.100Z,21.53
2024-04-14T11:22:26.174Z,21.55
2024-04-14T11:25:12.519Z,21.53
2024-04-14T11:28:01.724Z,21.64
2024-04-14T11:30:48.695Z,21.69
2024-04-14T11:33:35.686Z,21.70
2024-04-14T11:36:22.262Z,21.75
2024-04-14T11:39:08.546Z,21.83
2024-04-14T11:41:54.857Z,21.84
2024-04-14T11:44:40.988Z,21.91
2024-04-14T11:47:28.221Z,21.94
2024-04-14T11:50:14.816Z,21.96
2024-04-14T11:53:00.950Z,21.99
2024-04-14T11:55:47.457Z,22.03
2024-04-14T11:58:33.279Z,22.08
2024-04-14T12:01:19.914Z,22.12
2024-04-14T12:04:06.221Z,22.19
2024-04-14T12:06:52.748Z,22.25
2024-04-14T12:09:39.435Z,22.25
2024-04-14T12:12:25.439Z,22.24
2024-04-14T12:15:11.884Z,22.32
2024-04-14T12:17:58.789Z,22.36
2024-04-14T12:20:45.323Z,22.35
2024-04-14T12:23:31.495Z,22.46
2024-04-14T12:26:18.170Z,22.48
2024-04-14T12:29:04.286Z,22.52
2024-04-14T12:31:51.086Z,22.54
2024-04-14T12:34:37.302Z,22.49
2024-04-14T12:37:23.897Z,22.55
2024-04-14T12:40:11.379Z,22.61
2024-04-14T12:42:59.081Z,22.63
2024-04-14T12:45:49.751Z,22.66
2024-04-14T12:48:36.162Z,22.77
2024-04-14T12:51:22.484Z,22.86
2024-04-14T12:54:11.269Z,22.93
2024-04-14T12:56:57.967Z,23.02
2024-04-14T12:59:44.165Z,23.09
2024-04-14T13:02:30.569Z,23.14
2024-04-14T13:05:17.233Z,23.22
2024-04-14T13:08:03.320Z,23.31
2024-04-14T13:10:49.481Z,23.32
2024-04-14T13:13:35.558Z,23.36
2024-04-14T13:16:22.403Z,23.40
2024-04-14T13:19:08.899Z,23.43
2024-04-14T13:21:54.938Z,23.50
2024-04-14T13:24:41.074Z,23.56
2024-04-14T13:27:27.674Z,23.59
2024-04-14T13:30:13.956Z,23.67
2024-04-14T13:33:01.847Z,23.82
2024-04-14T13:35:48.468Z,23.89
2024-04-14T13:38:35.357Z,24.12
2024-04-14T13:41:21.543Z,24.34
2024-04-14T13:44:08.004Z,24.44
2024-04-14T13:46:54.129Z,24.59
2024-04-14T13:49:41.040Z,24.65
2024-04-14T13:52:29.737Z,24.70
2024-04-14T13:55:16.893Z,24.82
2024-04-14T13:58:04.260Z,24.87
2024-04-14T14:00:50.831Z,25.06
2024-04-14T14:03:37.223Z,25.19
2024-04-14T14:06:23.373Z,25.31
2024-04-14T14:09:12.756Z,25.47
2024-04-14T14:11:59.761Z,25.57
2024-04-14T14:14:46.067Z,25.69
2024-04-14T14:17:32.724Z,25.76
2024-04-14T14:20:18.845Z,25.82
2024-04-14T14:23:05.474Z,25.92
2024-04-14T14:25:51.873Z,25.95
2024-04-14T14:28:38.662Z,26.01
2024-04-14T14:31:25.079Z,26.17
2024-04-14T14:34:29.932Z,26.23
2024-04-14T14:37:16.715Z,26.29
2024-04-14T14:40:02.961Z,26.35
2024-04-14T14:42:49.587Z,26.41
2024-04-14T14:45:36.160Z,26.45
2024-04-14T14:48:22.896Z,26.50
2024-04-14T14:51:09.432Z,26.55
2024-04-14T14:53:56.287Z,26.69
2024-04-14T14:56:42.633Z,26.72
2024-04-14T14:59:31.771Z,26.80
2024-04-14T15:02:18.591Z,26.87
2024-04-14T15:05:05.645Z,26.94
2024-04-14T15:07:52.311Z,27.02
2024-04-14T15:10:45.161Z,27.09
2024-04-14T15:13:32.690Z,27.06
2024-04-14T15:16:19.045Z,27.04
2024-04-14T15:19:05.428Z,27.05
2024-04-14T15:21:51.998Z,27.02
2024-04-14T15:24:40.450Z,27.01
2024-04-14T15:27:26.640Z,26.99
2024-04-14T15:30:13.127Z,27.01
2024-04-14T15:32:59.530Z,26.97
2024-04-14T15:35:46.118Z,26.93
2024-04-14T15:38:35.562Z,26.90
2024-04-14T15:41:22.082Z,26.87
2024-04-14T15:44:15.090Z,26.83
2024-04-14T15:47:08.538Z,26.78
2024-04-14T15:49:55.246Z,26.75
2024-04-14T15:52:41.687Z,26.64
2024-04-14T15:55:29.710Z,26.55
2024-04-14T15:58:16.786Z,26.44
2024-04-14T16:01:04.068Z,26.37
2024-04-14T16:03:52.169Z,26.23
2024-04-14T16:06:38.754Z,26.14
2024-04-14T16:09:27.542Z,25.98
2024-04-14T16:12:14.882Z,25.89
2024-04-14T16:15:01.157Z,25.83
2024-04-14T16:17:47.793Z,25.71
2024-04-14T16:20:34.587Z,25.59
2024-04-14T16:23:21.015Z,25.46
2024-04-14T16:26:08.271Z,25.42
2024-04-14T16:28:55.459Z,25.33
2024-04-14T16:31:41.820Z,25.20
2024-04-14T16:34:28.046Z,25.08
2024-04-14T16:37:14.237Z,25.01
2024-04-14T16:40:01.554Z,24.90
2024-04-14T16:42:49.938Z,24.81
2024-04-14T16:45:36.616Z,24.70
2024-04-14T16:48:23.744Z,24.62
2024-04-14T16:51:10.920Z,24.51
2024-04-14T16:53:57.801Z,24.41
2024-04-14T16:56:43.992Z,24.33
2024-04-14T16:59:31.882Z,24.23
2024-04-14T17:02:18.466Z,24.16
2024-04-14T17:05:05.231Z,24.07
2024-04-14T17:07:52.401Z,23.99
2024-04-14T17:10:40.356Z,23.90
2024-04-14T17:13:26.582Z,23.78
2024-04-14T17:16:13.549Z,23.73
2024-04-14T17:18:59.987Z,23.62
2024-04-14T17:21:46.598Z,23.58
2024-04-14T17:24:33.424Z,23.47
2024-04-14T17:27:19.716Z,23.40
2024-04-14T17:30:06.405Z,23.35
2024-04-14T17:32:53.340Z,23.29
2024-04-14T17:35:39.794Z,23.20
2024-04-14T17:38:26.263Z,23.14
2024-04-14T17:41:12.528Z,23.08
2024-04-14T17:43:59.234Z,23.00
2024-04-14T17:46:47.800Z,22.93
2024-04-14T17:49:34.730Z,22.83
2024-04-14T17:52:21.401Z,22.78
2024-04-14T17:55:07.862Z,22.71
2024-04-14T17:57:54.450Z,22.64
2024-04-14T18:00:41.090Z,22.57
2024-04-14T18:03:28.035Z,22.52
2024-04-14T18:06:14.533Z,22.45
2024-04-14T18:09:01.772Z,22.37
2024-04-14T18:11:53.416Z,22.34
2024-04-14T18:14:39.832Z,22.30
2024-04-14T18:17:26.042Z,22.20
2024-04-14T18:20:13.033Z,22.16
2024-04-14T18:23:04.114Z,22.14
2024-04-14T18:25:50.364Z,22.10
2024-04-14T18:28:37.052Z,22.06
2024-04-14T18:31:23.817Z,22.02
2024-04-14T18:34:10.241Z,21.94
2024-04-14T18:36:57.187Z,21.76
2024-04-14T18:39:43.888Z,21.71
2024-04-14T18:42:30.123Z,21.58
2024-04-14T18:45:16.810Z,21.53
2024-04-14T18:48:03.243Z,21.41
2024-04-14T18:50:49.772Z,21.39
2024-04-14T18:53:36.766Z,21.28
2024-04-14T18:56:23.351Z,21.18
2024-04-14T18:59:09.730Z,21.16
2024-04-14T19:01:55.770Z,21.10
2024-04-14T19:04:42.370Z,21.00
2024-04-14T19:07:28.305Z,20.94
2024-04-14T19:10:15.801Z,20.89
2024-04-14T19:13:02.125Z,20.81
2024-04-14T19:15:48.824Z,20.74
2024-04-14T19:18:35.914Z,20.69
2024-04-14T19:21:22.770Z,20.61
2024-04-14T19:24:09.394Z,20.53
2024-04-14T19:26:57.018Z,20.47
2024-04-14T19:29:43.277Z,20.42
2024-04-14T19:32:29.595Z,20.37
2024-04-14T19:35:16.170Z,20.31
2024-04-14T19:38:02.506Z,20.26
2024-04-14T19:40:48.684Z,20.17
2024-04-14T19:43:35.376Z,20.14
2024-04-14T19:46:21.766Z,20.06
2024-04-14T19:49:09.892Z,20.00
2024-04-14T19:51:56.351Z,19.97
2024-04-14T19:54:42.757Z,19.93
2024-04-14T19:57:30.033Z,19.77
2024-04-14T20:00:16.621Z,19.80
2024-04-14T20:03:03.779Z,19.73
2024-04-14T20:05:49.834Z,19.61
2024-04-14T20:08:36.741Z,19.61
2024-04-14T20:11:23.379Z,19.56
2024-04-14T20:14:10.088Z,19.49
2024-04-14T20:16:56.367Z,19.44
2024-04-14T20:19:43.134Z,19.30
2024-04-14T20:22:29.277Z,19.31
2024-04-14T20:25:16.302Z,19.26
2024-04-14T20:28:03.255Z,19.26
2024-04-14T20:30:50.049Z,19.16
2024-04-14T20:33:36.513Z,19.09
2024-04-14T20:36:23.230Z,19.13
2024-04-14T20:39:15.002Z,19.04
2024-04-14T20:42:01.070Z,18.97
2024-04-14T20:44:47.782Z,18.91
2024-04-14T20:47:34.418Z,18.89
2024-04-14T20:50:20.906Z,18.85
2024-04-14T20:53:07.570Z,18.77
2024-04-14T20:55:56.749Z,18.78
2024-04-14T20:58:43.461Z,18.72
2024-04-14T21:01:29.957Z,18.72
2024-04-14T21:04:16.749Z,18.66
2024-04-14T21:07:05.506Z,18.61
2024-04-14T21:09:51.801Z,18.58
2024-04-14T21:12:38.891Z,18.51
2024-04-14T21:15:25.252Z,18.52
2024-04-14T21:18:11.459Z,18.50
2024-04-14T21:20:58.020Z,18.45
2024-04-14T21:23:44.206Z,18.37
2024-04-14T21:26:30.181Z,18.38
2024-04-14T21:29:18.379Z,18.30
2024-04-14T21:32:06.018Z,18.30
2024-04-14T21:34:52.443Z,18.26
2024-04-14T21:37:39.894Z,18.20
2024-04-14T21:40:26.376Z,18.14
2024-04-14T21:43:13.197Z,18.12
2024-04-14T21:46:01.545Z,18.09
2024-04-14T21:48:48.015Z,18.03
2024-04-14T21:51:34.488Z,17.98
2024-04-14T21:54:22.631Z,17.95
2024-04-14T21:57:08.826Z,17.86
2024-04-14T21:59:55.681Z,17.84
2024-04-14T22:02:41.614Z,17.81
2024-04-14T22:05:27.834Z,17.75
2024-04-14T22:08:14.003Z,17.67
2024-04-14T22:11:00.727Z,17.62
2024-04-14T22:13:47.287Z,17.55
2024-04-14T22:16:33.856Z,17.54
2024-04-14T22:19:20.491Z,17.49
2024-04-14T22:22:06.973Z,17.47
2024-04-14T22:24:54.272Z,17.45
2024-04-14T22:27:40.936Z,17.36
2024-04-14T22:30:27.727Z,17.31
2024-04-14T22:33:17.211Z,17.30
2024-04-14T22:36:03.896Z,17.19
2024-04-14T22:38:50.350Z,17.17
2024-04-14T22:41:36.719Z,17.13
2024-04-14T22:44:23.279Z,17.08
2024-04-14T22:47:09.956Z,17.03
2024-04-14T22:49:56.386Z,17.00
2024-04-14T22:52:42.422Z,16.97
2024-04-14T22:55:28.747Z,16.95
2024-04-14T22:58:15.332Z,16.72
2024-04-14T23:01:02.971Z,16.82
2024-04-14T23:03:49.386Z,16.85
2024-04-14T23:06:35.914Z,16.81
2024-04-14T23:09:22.188Z,16.78
2024-04-14T23:12:08.716Z,16.76
2024-04-14T23:14:55.099Z,16.73
2024-04-14T23:17:41.792Z,16.66
2024-04-14T23:20:29.239Z,16.69
2024-04-14T23:23:16.313Z,16.63
2024-04-14T23:26:02.400Z,16.61
2024-04-14T23:28:48.543Z,16.58
2024-04-14T23:31:35.768Z,16.54
2024-04-14T23:34:21.988Z,16.48
2024-04-14T23:37:08.612Z,16.46
2024-04-14T23:39:55.303Z,16.43
2024-04-14T23:42:41.767Z,16.40
2024-04-14T23:45:28.817Z,16.35
2024-04-14T23:48:14.942Z,16.34
2024-04-14T23:51:01.429Z,16.27
2024-04-14T23:53:47.435Z,16.20
2024-04-14T23:56:33.382Z,16.21
2024-04-14T23:59:19.450Z,16.18
